createdAt,value
2022-10-17T00:00:33.621Z,94.20
2022-10-17T00:03:00.585Z,93.82
2022-10-17T00:05:26.954Z,93.90
2022-10-17T00:07:54.588Z,93.83
2022-10-17T00:10:21.802Z,93.97
2022-10-17T00:12:48.379Z,93.90
2022-10-17T00:15:17.376Z,94.29
2022-10-17T00:17:44.238Z,93.73
2022-10-17T00:20:11.571Z,93.81
2022-10-17T00:22:38.030Z,94.19
2022-10-17T00:25:04.724Z,94.27
2022-10-17T00:27:34.197Z,94.56
2022-10-17T00:30:00.573Z,94.59
2022-10-17T00:32:27.259Z,94.63
2022-10-17T00:34:53.733Z,94.94
2022-10-17T00:37:20.072Z,95.10
2022-10-17T00:39:46.708Z,94.80
2022-10-17T00:42:13.607Z,94.87
2022-10-17T00:44:39.892Z,94.74
2022-10-17T00:47:11.731Z,95.35
2022-10-17T00:49:39.138Z,95.49
2022-10-17T00:52:10.125Z,95.49
2022-10-17T00:54:51.713Z,95.43
2022-10-17T00:57:18.118Z,95.33
2022-10-17T00:59:49.918Z,95.38
2022-10-17T01:02:19.284Z,95.51
2022-10-17T01:04:48.746Z,95.42
2022-10-17T01:07:15.200Z,95.38
2022-10-17T01:09:45.125Z,95.40
2022-10-17T01:12:20.771Z,95.41
2022-10-17T01:15:18.769Z,95.32
2022-10-17T01:18:06.855Z,95.47
2022-10-17T01:20:39.298Z,95.33
2022-10-17T01:23:36.350Z,95.46
2022-10-17T01:26:27.461Z,95.55
2022-10-17T01:29:18.324Z,95.64
2022-10-17T01:31:55.061Z,95.51
2022-10-17T01:34:53.809Z,95.18
2022-10-17T01:37:31.456Z,95.47
2022-10-17T01:40:10.605Z,95.68
2022-10-17T01:43:03.453Z,95.85
2022-10-17T01:45:37.501Z,95.95
2022-10-17T01:48:14.409Z,96.15
2022-10-17T01:50:50.641Z,96.31
2022-10-17T01:53:25.480Z,96.57
2022-10-17T01:55:54.119Z,96.65
2022-10-17T01:58:28.372Z,96.81
2022-10-17T02:00:58.477Z,96.81
2022-10-17T02:03:27.647Z,96.91
2022-10-17T02:05:54.746Z,96.91
2022-10-17T02:08:42.785Z,97.21
2022-10-17T02:11:18.841Z,97.20
2022-10-17T02:14:19.220Z,97.48
2022-10-17T02:17:08.418Z,97.69
2022-10-17T02:20:11.840Z,97.91
2022-10-17T02:22:47.449Z,97.96
2022-10-17T02:25:22.938Z,97.88
2022-10-17T02:27:58.662Z,98.06
2022-10-17T02:30:39.639Z,97.96
2022-10-17T02:33:12.761Z,98.15
2022-10-17T02:35:43.699Z,98.18
2022-10-17T02:38:12.152Z,98.33
2022-10-17T02:40:40.761Z,98.34
2022-10-17T02:43:07.754Z,98.30
2022-10-17T02:45:37.160Z,98.50
2022-10-17T02:48:08.435Z,98.19
2022-10-17T02:50:53.554Z,98.33
2022-10-17T02:53:30.253Z,98.32
2022-10-17T02:56:00.222Z,98.31
2022-10-17T02:58:32.804Z,98.29
2022-10-17T03:01:00.771Z,98.50
2022-10-17T03:03:32.059Z,98.68
2022-10-17T03:05:58.478Z,98.71
2022-10-17T03:08:25.418Z,98.82
2022-10-17T03:10:51.887Z,98.98
2022-10-17T03:13:18.394Z,98.96
2022-10-17T03:15:44.927Z,99.32
2022-10-17T03:18:11.589Z,99.45
2022-10-17T03:20:38.070Z,99.64
2022-10-17T03:23:04.429Z,99.97
2022-10-17T03:25:30.861Z,100.00
2022-10-17T03:28:01.486Z,100.00
2022-10-17T03:30:29.019Z,100.00
2022-10-17T03:32:57.093Z,100.00
2022-10-17T03:35:23.472Z,100.00
2022-10-17T03:37:49.991Z,100.00
2022-10-17T03:40:16.417Z,100.00
2022-10-17T03:42:42.834Z,100.00
2022-10-17T03:45:09.762Z,100.00
2022-10-17T03:47:36.406Z,100.00
2022-10-17T03:50:02.961Z,100.00
2022-10-17T03:52:29.296Z,100.00
2022-10-17T03:54:55.632Z,100.00
2022-10-17T03:57:21.969Z,100.00
2022-10-17T03:59:50.454Z,100.00
2022-10-17T04:02:16.824Z,100.00
2022-10-17T04:04:43.157Z,100.00
2022-10-17T04:07:09.505Z,100.00
2022-10-17T04:09:36.162Z,100.00
2022-10-17T04:12:02.539Z,100.00
2022-10-17T04:14:28.868Z,100.00
2022-10-17T04:16:55.311Z,100.00
2022-10-17T04:19:21.656Z,100.00
2022-10-17T04:21:48.035Z,100.00
2022-10-17T04:24:14.531Z,100.00
2022-10-17T04:26:40.920Z,100.00
2022-10-17T04:29:07.501Z,100.00
2022-10-17T04:31:33.861Z,100.00
2022-10-17T04:34:00.205Z,100.00
2022-10-17T04:36:26.564Z,100.00
2022-10-17T04:38:53.070Z,100.00
2022-10-17T04:41:19.540Z,100.00
2022-10-17T04:43:48.616Z,100.00
2022-10-17T04:46:17.509Z,100.00
2022-10-17T04:48:44.263Z,100.00
2022-10-17T04:51:13.729Z,100.00
2022-10-17T04:53:41.454Z,100.00
2022-10-17T04:56:15.201Z,100.00
2022-10-17T04:58:43.237Z,100.00
2022-10-17T05:01:12.248Z,100.00
2022-10-17T05:03:38.689Z,100.00
2022-10-17T05:06:10.839Z,100.00
2022-10-17T05:08:37.597Z,100.00
2022-10-17T05:11:05.679Z,100.00
2022-10-17T05:13:32.708Z,100.00
2022-10-17T05:16:01.002Z,100.00
2022-10-17T05:18:28.711Z,100.00
2022-10-17T05:20:55.090Z,100.00
2022-10-17T05:23:21.777Z,100.00
2022-10-17T05:25:48.269Z,100.00
2022-10-17T05:28:15.081Z,100.00
2022-10-17T05:30:41.406Z,100.00
2022-10-17T05:33:07.838Z,100.00
2022-10-17T05:35:34.180Z,100.00
2022-10-17T05:38:01.032Z,100.00
2022-10-17T05:40:27.565Z,100.00
2022-10-17T05:42:54.691Z,100.00
2022-10-17T05:45:21.136Z,100.00
2022-10-17T05:47:47.772Z,100.00
2022-10-17T05:50:14.221Z,100.00
2022-10-17T05:52:42.871Z,100.00
2022-10-17T05:55:11.549Z,100.00
2022-10-17T05:57:38.387Z,100.00
2022-10-17T06:00:06.039Z,100.00
2022-10-17T06:02:33.026Z,100.00
2022-10-17T06:04:59.744Z,100.00
2022-10-17T06:07:26.106Z,100.00
2022-10-17T06:09:52.456Z,100.00
2022-10-17T06:12:18.832Z,100.00
2022-10-17T06:14:45.183Z,100.00
2022-10-17T06:17:15.768Z,100.00
2022-10-17T06:19:44.366Z,100.00
2022-10-17T06:22:10.758Z,100.00
2022-10-17T06:24:37.103Z,100.00
2022-10-17T06:27:05.859Z,100.00
2022-10-17T06:29:35.680Z,100.00
2022-10-17T06:32:02.036Z,100.00
2022-10-17T06:34:28.476Z,100.00
2022-10-17T06:36:54.872Z,100.00
2022-10-17T06:39:21.662Z,100.00
2022-10-17T06:41:48.061Z,100.00
2022-10-17T06:44:14.433Z,100.00
2022-10-17T06:46:40.945Z,100.00
2022-10-17T06:49:10.280Z,100.00
2022-10-17T06:51:37.859Z,100.00
2022-10-17T06:54:04.560Z,100.00
2022-10-17T06:56:30.961Z,100.00
2022-10-17T06:58:57.344Z,100.00
2022-10-17T07:01:23.761Z,100.00
2022-10-17T07:03:50.144Z,100.00
2022-10-17T07:06:17.891Z,100.00
2022-10-17T07:08:45.411Z,100.00
2022-10-17T07:11:18.853Z,100.00
2022-10-17T07:13:45.224Z,100.00
2022-10-17T07:16:12.512Z,100.00
2022-10-17T07:18:40.135Z,100.00
2022-10-17T07:21:08.468Z,100.00
2022-10-17T07:23:36.946Z,100.00
2022-10-17T07:26:08.305Z,100.00
2022-10-17T07:28:37.586Z,100.00
2022-10-17T07:31:07.001Z,100.00
2022-10-17T07:33:33.756Z,100.00
2022-10-17T07:36:01.766Z,100.00
2022-10-17T07:38:29.026Z,100.00
2022-10-17T07:40:56.872Z,100.00
2022-10-17T07:43:24.668Z,100.00
2022-10-17T07:45:51.615Z,100.00
2022-10-17T07:48:19.096Z,100.00
2022-10-17T07:50:45.795Z,100.00
2022-10-17T07:53:12.162Z,100.00
2022-10-17T07:55:39.845Z,100.00
2022-10-17T07:58:08.766Z,100.00
2022-10-17T08:00:36.848Z,100.00
2022-10-17T08:03:04.055Z,100.00
2022-10-17T08:05:31.309Z,100.00
2022-10-17T08:07:57.994Z,100.00
2022-10-17T08:10:29.276Z,100.00
2022-10-17T08:12:57.565Z,100.00
2022-10-17T08:15:29.329Z,100.00
2022-10-17T08:17:59.117Z,100.00
2022-10-17T08:20:25.498Z,100.00
2022-10-17T08:22:53.698Z,100.00
2022-10-17T08:25:20.115Z,100.00
2022-10-17T08:27:46.935Z,100.00
2022-10-17T08:30:13.620Z,100.00
2022-10-17T08:32:40.066Z,100.00
2022-10-17T08:35:06.945Z,100.00
2022-10-17T08:37:33.891Z,100.00
2022-10-17T08:40:00.488Z,100.00
2022-10-17T08:42:29.794Z,100.00
2022-10-17T08:45:08.354Z,100.00
2022-10-17T08:47:39.241Z,100.00
2022-10-17T08:50:11.736Z,100.00
2022-10-17T08:52:47.970Z,100.00
2022-10-17T08:55:36.998Z,100.00
2022-10-17T08:58:21.109Z,100.00
2022-10-17T09:01:09.018Z,100.00
2022-10-17T09:04:15.152Z,100.00
2022-10-17T09:06:53.913Z,100.00
2022-10-17T09:09:32.379Z,100.00
2022-10-17T09:12:16.690Z,100.00
2022-10-17T09:15:08.319Z,100.00
2022-10-17T09:17:37.565Z,100.00
2022-10-17T09:20:12.242Z,100.00
2022-10-17T09:22:45.563Z,100.00
2022-10-17T09:25:15.292Z,100.00
2022-10-17T09:28:06.330Z,100.00
2022-10-17T09:30:44.545Z,100.00
2022-10-17T09:33:28.486Z,100.00
2022-10-17T09:36:11.049Z,100.00
2022-10-17T09:38:44.455Z,100.00
2022-10-17T09:41:44.139Z,100.00
2022-10-17T09:44:25.522Z,100.00
2022-10-17T09:47:00.974Z,100.00
2022-10-17T09:49:36.470Z,100.00
2022-10-17T09:52:05.246Z,100.00
2022-10-17T09:54:48.341Z,100.00
2022-10-17T09:57:16.812Z,100.00
2022-10-17T10:00:05.012Z,100.00
2022-10-17T10:02:33.493Z,100.00
2022-10-17T10:05:16.230Z,100.00
2022-10-17T10:07:46.074Z,100.00
2022-10-17T10:10:32.620Z,100.00
2022-10-17T10:13:22.252Z,100.00
2022-10-17T10:15:50.793Z,100.00
2022-10-17T10:18:26.221Z,100.00
2022-10-17T10:21:07.014Z,100.00
2022-10-17T10:23:34.070Z,100.00
2022-10-17T10:26:05.952Z,100.00
2022-10-17T10:28:35.381Z,100.00
2022-10-17T10:31:07.992Z,100.00
2022-10-17T10:33:41.768Z,100.00
2022-10-17T10:36:09.063Z,100.00
2022-10-17T10:38:40.892Z,100.00
2022-10-17T10:41:09.970Z,100.00
2022-10-17T10:43:42.155Z,100.00
2022-10-17T10:46:23.893Z,100.00
2022-10-17T10:48:54.211Z,100.00
2022-10-17T10:51:31.117Z,100.00
2022-10-17T10:54:06.569Z,100.00
2022-10-17T10:56:51.110Z,100.00
2022-10-17T10:59:31.722Z,100.00
2022-10-17T11:02:08.333Z,100.00
2022-10-17T11:04:43.379Z,100.00
2022-10-17T11:07:14.371Z,100.00
2022-10-17T11:10:01.865Z,100.00
2022-10-17T11:12:33.325Z,100.00
2022-10-17T11:15:02.674Z,100.00
2022-10-17T11:17:36.939Z,100.00
2022-10-17T11:20:09.011Z,100.00
2022-10-17T11:22:43.169Z,100.00
2022-10-17T11:25:12.269Z,100.00
2022-10-17T11:27:38.937Z,100.00
2022-10-17T11:30:06.177Z,100.00
2022-10-17T11:32:50.440Z,100.00
2022-10-17T11:35:32.133Z,100.00
2022-10-17T11:38:29.780Z,100.00
2022-10-17T11:40:59.382Z,100.00
2022-10-17T11:43:31.164Z,100.00
2022-10-17T11:46:12.532Z,100.00
2022-10-17T11:49:20.855Z,100.00
2022-10-17T11:52:01.510Z,100.00
2022-10-17T11:54:42.823Z,100.00
2022-10-17T11:57:15.002Z,100.00
2022-10-17T12:00:19.056Z,100.00
2022-10-17T12:02:49.486Z,100.00
2022-10-17T12:05:22.223Z,100.00
2022-10-17T12:08:00.407Z,100.00
2022-10-17T12:10:32.838Z,100.00
2022-10-17T12:13:27.977Z,100.00
2022-10-17T12:16:18.050Z,100.00
2022-10-17T12:18:44.991Z,100.00
2022-10-17T12:21:11.590Z,100.00
2022-10-17T12:23:41.261Z,100.00
2022-10-17T12:26:09.859Z,99.67
2022-10-17T12:28:44.318Z,99.52
2022-10-17T12:31:16.411Z,99.33
2022-10-17T12:33:45.816Z,99.33
2022-10-17T12:36:18.360Z,99.12
2022-10-17T12:38:51.468Z,98.94
2022-10-17T12:41:37.754Z,98.58
2022-10-17T12:44:13.270Z,98.73
2022-10-17T12:46:50.897Z,98.72
2022-10-17T12:49:55.821Z,98.63
2022-10-17T12:52:32.208Z,98.50
2022-10-17T12:55:13.543Z,98.55
2022-10-17T12:58:14.200Z,98.65
2022-10-17T13:01:19.038Z,98.61
2022-10-17T13:03:45.727Z,98.70
2022-10-17T13:06:20.964Z,98.87
2022-10-17T13:08:56.870Z,99.16
2022-10-17T13:11:28.428Z,99.23
2022-10-17T13:13:58.306Z,99.23
2022-10-17T13:16:32.185Z,99.19
2022-10-17T13:19:00.624Z,99.11
2022-10-17T13:21:27.596Z,98.95
2022-10-17T13:23:54.408Z,99.18
2022-10-17T13:26:26.504Z,99.16
2022-10-17T13:29:11.145Z,99.26
2022-10-17T13:31:43.790Z,99.16
2022-10-17T13:34:25.005Z,99.00
2022-10-17T13:37:13.352Z,98.74
2022-10-17T13:39:55.685Z,98.76
2022-10-17T13:42:27.699Z,98.60
2022-10-17T13:44:55.080Z,98.44
2022-10-17T13:47:28.440Z,98.24
2022-10-17T13:49:56.434Z,98.02
2022-10-17T13:52:27.287Z,97.97
2022-10-17T13:54:54.805Z,97.64
2022-10-17T13:57:29.739Z,97.53
2022-10-17T14:00:02.086Z,97.44
2022-10-17T14:02:30.797Z,97.44
2022-10-17T14:05:22.955Z,97.11
2022-10-17T14:08:11.432Z,97.15
2022-10-17T14:10:40.020Z,96.92
2022-10-17T14:13:10.801Z,96.68
2022-10-17T14:15:37.439Z,97.10
2022-10-17T14:18:09.456Z,96.35
2022-10-17T14:23:42.019Z,96.39
2022-10-17T14:26:17.856Z,96.09
2022-10-17T14:28:47.483Z,96.28
2022-10-17T14:31:25.774Z,96.18
2022-10-17T14:33:53.878Z,96.29
2022-10-17T14:36:30.535Z,95.95
2022-10-17T14:38:57.572Z,95.95
2022-10-17T14:41:42.544Z,95.49
2022-10-17T14:44:19.205Z,95.24
2022-10-17T14:46:50.812Z,94.84
2022-10-17T14:49:25.367Z,94.63
2022-10-17T14:52:17.719Z,94.32
2022-10-17T14:54:46.992Z,94.08
2022-10-17T14:57:28.740Z,93.74
2022-10-17T14:59:56.529Z,93.95
2022-10-17T15:02:25.015Z,93.86
2022-10-17T15:04:51.641Z,93.84
2022-10-17T15:07:18.879Z,93.63
2022-10-17T15:09:49.143Z,93.76
2022-10-17T15:12:19.018Z,94.02
2022-10-17T15:14:47.823Z,94.13
2022-10-17T15:17:20.807Z,94.12
2022-10-17T15:19:48.380Z,94.29
2022-10-17T15:22:16.746Z,94.27
2022-10-17T15:24:43.252Z,94.33
2022-10-17T15:27:16.269Z,94.21
2022-10-17T15:29:42.936Z,94.23
2022-10-17T15:32:09.614Z,93.98
2022-10-17T15:34:36.210Z,94.01
2022-10-17T15:37:04.729Z,94.12
2022-10-17T15:39:31.575Z,94.28
2022-10-17T15:41:58.715Z,94.38
2022-10-17T15:44:25.235Z,94.30
2022-10-17T15:46:51.617Z,94.30
2022-10-17T15:49:19.903Z,94.56
2022-10-17T15:51:47.210Z,94.53
2022-10-17T15:54:15.702Z,94.67
2022-10-17T15:56:43.125Z,94.77
2022-10-17T15:59:17.867Z,94.81
2022-10-17T16:01:44.559Z,94.73
2022-10-17T16:04:14.601Z,94.95
2022-10-17T16:06:42.538Z,95.09
2022-10-17T16:09:09.593Z,95.31
2022-10-17T16:11:39.173Z,95.48
2022-10-17T16:14:09.737Z,95.81
2022-10-17T16:16:35.967Z,96.01
2022-10-17T16:19:02.590Z,96.14
2022-10-17T16:21:32.508Z,96.44
2022-10-17T16:24:00.453Z,96.37
2022-10-17T16:26:28.212Z,96.41
2022-10-17T16:28:58.158Z,96.65
2022-10-17T16:31:30.770Z,96.67
2022-10-17T16:33:59.296Z,96.81
2022-10-17T16:36:25.684Z,97.00
2022-10-17T16:38:55.813Z,97.15
2022-10-17T16:41:26.346Z,97.24
2022-10-17T16:43:54.493Z,97.24
2022-10-17T16:46:21.912Z,97.31
2022-10-17T16:48:49.710Z,97.33
2022-10-17T16:51:18.726Z,97.44
2022-10-17T16:53:46.314Z,97.46
2022-10-17T16:56:15.270Z,97.18
2022-10-17T16:58:42.721Z,97.56
2022-10-17T17:01:13.989Z,97.77
2022-10-17T17:03:42.379Z,97.87
2022-10-17T17:06:13.306Z,97.89
2022-10-17T17:08:40.043Z,97.91
2022-10-17T17:11:07.907Z,98.12
2022-10-17T17:13:34.798Z,98.28
2022-10-17T17:16:06.927Z,98.70
2022-10-17T17:18:33.642Z,98.75
2022-10-17T17:21:01.908Z,98.96
2022-10-17T17:23:29.962Z,99.34
2022-10-17T17:26:01.485Z,99.30
2022-10-17T17:28:29.184Z,99.54
2022-10-17T17:30:55.753Z,99.60
2022-10-17T17:33:23.787Z,99.68
2022-10-17T17:35:58.649Z,99.66
2022-10-17T17:38:25.553Z,99.75
2022-10-17T17:40:52.136Z,99.84
2022-10-17T17:43:18.832Z,100.00
2022-10-17T17:45:45.362Z,100.00
2022-10-17T17:48:12.320Z,100.00
2022-10-17T17:50:40.698Z,100.00
2022-10-17T17:53:08.649Z,100.00
2022-10-17T17:55:35.365Z,100.00
2022-10-17T17:58:02.734Z,100.00
2022-10-17T18:00:29.383Z,100.00
2022-10-17T18:02:56.904Z,100.00
2022-10-17T18:05:24.053Z,100.00
2022-10-17T18:07:50.507Z,100.00
2022-10-17T18:10:17.053Z,100.00
2022-10-17T18:12:43.694Z,100.00
2022-10-17T18:15:10.564Z,100.00
2022-10-17T18:17:37.769Z,100.00
2022-10-17T18:20:06.101Z,100.00
2022-10-17T18:22:33.208Z,100.00
2022-10-17T18:24:59.725Z,100.00
2022-10-17T18:27:26.076Z,100.00
2022-10-17T18:29:52.754Z,100.00
2022-10-17T18:32:19.229Z,100.00
2022-10-17T18:34:45.550Z,100.00
2022-10-17T18:37:12.013Z,100.00
2022-10-17T18:39:38.480Z,100.00
2022-10-17T18:42:04.848Z,100.00
2022-10-17T18:44:31.185Z,100.00
2022-10-17T18:47:02.929Z,100.00
2022-10-17T18:49:31.383Z,100.00
2022-10-17T18:51:59.396Z,100.00
2022-10-17T18:54:25.833Z,100.00
2022-10-17T18:56:54.330Z,100.00
2022-10-17T18:59:20.957Z,100.00
2022-10-17T19:01:47.964Z,100.00
2022-10-17T19:04:14.710Z,100.00
2022-10-17T19:06:41.756Z,100.00
2022-10-17T19:09:09.970Z,100.00
2022-10-17T19:11:38.170Z,100.00
2022-10-17T19:14:13.283Z,100.00
2022-10-17T19:16:50.907Z,100.00
2022-10-17T19:19:21.984Z,100.00
2022-10-17T19:21:48.986Z,100.00
2022-10-17T19:24:24.898Z,100.00
2022-10-17T19:26:53.546Z,100.00
2022-10-17T19:29:21.262Z,100.00
2022-10-17T19:31:48.114Z,100.00
2022-10-17T19:34:15.510Z,100.00
2022-10-17T19:36:42.813Z,100.00
2022-10-17T19:39:18.985Z,100.00
2022-10-17T19:41:48.137Z,100.00
2022-10-17T19:44:15.438Z,100.00
2022-10-17T19:46:44.265Z,100.00
2022-10-17T19:49:11.493Z,100.00
2022-10-17T19:51:37.960Z,100.00
2022-10-17T19:54:04.384Z,100.00
2022-10-17T19:56:32.812Z,100.00
2022-10-17T19:58:59.431Z,100.00
2022-10-17T20:01:29.341Z,100.00
2022-10-17T20:03:56.531Z,100.00
2022-10-17T20:06:23.389Z,100.00
2022-10-17T20:08:50.480Z,100.00
2022-10-17T20:11:25.020Z,100.00
2022-10-17T20:13:53.688Z,100.00
2022-10-17T20:16:25.885Z,100.00
2022-10-17T20:18:55.509Z,100.00
2022-10-17T20:21:25.184Z,100.00
2022-10-17T20:23:51.575Z,100.00
2022-10-17T20:26:38.715Z,100.00
2022-10-17T20:29:11.254Z,100.00
2022-10-17T20:31:38.849Z,100.00
2022-10-17T20:34:05.282Z,100.00
2022-10-17T20:36:32.261Z,100.00
2022-10-17T20:38:59.367Z,100.00
2022-10-17T20:41:26.560Z,100.00
2022-10-17T20:43:54.454Z,100.00
2022-10-17T20:46:35.556Z,100.00
2022-10-17T20:49:05.039Z,100.00
2022-10-17T20:51:31.450Z,100.00
2022-10-17T20:53:57.841Z,100.00
2022-10-17T20:56:28.147Z,100.00
2022-10-17T20:58:59.720Z,100.00
2022-10-17T21:01:27.482Z,100.00
2022-10-17T21:03:54.312Z,100.00
2022-10-17T21:06:22.088Z,100.00
2022-10-17T21:08:49.506Z,100.00
2022-10-17T21:11:19.108Z,100.00
2022-10-17T21:13:46.788Z,100.00
2022-10-17T21:16:16.601Z,100.00
2022-10-17T21:18:44.202Z,100.00
2022-10-17T21:21:34.508Z,100.00
2022-10-17T21:24:03.698Z,100.00
2022-10-17T21:26:32.488Z,100.00
2022-10-17T21:29:02.860Z,100.00
2022-10-17T21:31:29.286Z,100.00
2022-10-17T21:34:00.957Z,100.00
2022-10-17T21:36:28.535Z,100.00
2022-10-17T21:38:56.594Z,100.00
2022-10-17T21:41:26.446Z,100.00
2022-10-17T21:43:58.070Z,100.00
2022-10-17T21:46:24.880Z,100.00
2022-10-17T21:48:52.642Z,100.00
2022-10-17T21:51:22.946Z,100.00
2022-10-17T21:53:51.255Z,100.00
2022-10-17T21:56:19.924Z,100.00
2022-10-17T21:58:47.672Z,100.00
2022-10-17T22:01:18.919Z,100.00
2022-10-17T22:03:47.649Z,100.00
2022-10-17T22:06:38.598Z,100.00
2022-10-17T22:09:04.407Z,100.00
2022-10-17T22:11:33.865Z,100.00
2022-10-17T22:14:11.056Z,100.00
2022-10-17T22:16:38.336Z,100.00
2022-10-17T22:19:06.655Z,100.00
2022-10-17T22:21:34.980Z,100.00
2022-10-17T22:24:04.070Z,100.00
2022-10-17T22:26:32.337Z,100.00
2022-10-17T22:28:59.269Z,100.00
2022-10-17T22:31:26.323Z,100.00
2022-10-17T22:33:53.322Z,100.00
2022-10-17T22:36:19.689Z,100.00
2022-10-17T22:38:46.310Z,100.00
2022-10-17T22:41:12.664Z,100.00
2022-10-17T22:43:39.138Z,100.00
2022-10-17T22:46:07.294Z,100.00
2022-10-17T22:48:34.219Z,100.00
2022-10-17T22:51:01.135Z,100.00
2022-10-17T22:53:29.331Z,100.00
2022-10-17T22:55:59.356Z,100.00
2022-10-17T22:58:26.643Z,100.00
2022-10-17T23:00:54.068Z,100.00
2022-10-17T23:03:21.484Z,100.00
2022-10-17T23:05:48.970Z,100.00
2022-10-17T23:08:17.848Z,100.00
2022-10-17T23:10:45.696Z,100.00
2022-10-17T23:13:13.045Z,100.00
2022-10-17T23:15:40.460Z,100.00
2022-10-17T23:18:07.639Z,100.00
2022-10-17T23:20:33.985Z,100.00
2022-10-17T23:23:00.355Z,100.00
2022-10-17T23:25:26.830Z,100.00
2022-10-17T23:27:53.567Z,100.00
2022-10-17T23:30:20.005Z,100.00
2022-10-17T23:32:46.409Z,100.00
2022-10-17T23:35:12.894Z,100.00
2022-10-17T23:37:39.284Z,100.00
2022-10-17T23:40:06.307Z,100.00
2022-10-17T23:42:32.696Z,100.00
2022-10-17T23:44:59.148Z,100.00
2022-10-17T23:47:25.522Z,100.00
2022-10-17T23:49:51.977Z,100.00
2022-10-17T23:52:18.340Z,100.00
2022-10-17T23:54:44.818Z,100.00
2022-10-17T23:57:11.186Z,100.00
2022-10-17T23:59:37.781Z,100.00
